Time;durP1;ratioP1;P1;durP2;ratioP2;P2;SDS_P1;SDS_P2;PMS_P1;PMS_P2;Temp;Humidity;BMP_temperature;BMP_pressure;BME280_temperature;BME280_humidity;BME280_pressure;Samples;Min_cycle;Max_cycle;Signal;HPM_P1;HPM_P2
2023/12/12 00:00:03;;;;;;;10.98;4.25;;;4.60;99.90;;;;;;7371324;19;20525;-64
2023/12/12 00:02:38;;;;;;;12.43;3.95;;;4.60;99.90;;;;;;7369431;19;20015;-64
2023/12/12 00:05:24;;;;;;;13.32;4.70;;;4.60;99.90;;;;;;7365928;19;20251;-64
2023/12/12 00:08:10;;;;;;;14.32;4.55;;;4.60;99.90;;;;;;7372024;19;20086;-64
2023/12/12 00:10:57;;;;;;;17.63;5.45;;;4.60;99.90;;;;;;7369596;19;20049;-64
2023/12/12 00:13:23;;;;;;;10.07;4.50;;;4.60;99.90;;;;;;7371779;19;20018;-64
2023/12/12 00:15:50;;;;;;;8.98;3.95;;;4.60;99.90;;;;;;7373348;19;20022;-64
2023/12/12 00:18:16;;;;;;;11.80;3.97;;;4.50;99.90;;;;;;7371627;19;20022;-60
2023/12/12 00:20:45;;;;;;;15.73;4.80;;;4.50;99.90;;;;;;7369458;19;20035;-65
2023/12/12 00:23:12;;;;;;;11.00;4.60;;;4.60;99.90;;;;;;7370237;19;20035;-65
2023/12/12 00:25:38;;;;;;;11.23;4.22;;;4.50;99.90;;;;;;7369484;19;20014;-65
2023/12/12 00:28:05;;;;;;;18.33;4.72;;;4.50;99.90;;;;;;7368517;19;20131;-60
2023/12/12 00:30:32;;;;;;;7.40;4.00;;;4.50;99.90;;;;;;7365633;19;20018;-60
2023/12/12 00:32:58;;;;;;;10.77;3.85;;;4.50;99.90;;;;;;7369401;19;20015;-60
2023/12/12 00:35:25;;;;;;;10.77;3.92;;;4.40;99.90;;;;;;7368611;19;20018;-64
2023/12/12 00:38:14;;;;;;;12.32;4.15;;;4.40;99.90;;;;;;7372214;19;20074;-65
2023/12/12 00:41:00;;;;;;;14.77;4.80;;;4.40;99.90;;;;;;7375421;19;20019;-60
2023/12/12 00:43:27;;;;;;;9.02;3.80;;;4.30;99.90;;;;;;7374676;19;20022;-59
2023/12/12 00:45:53;;;;;;;10.50;3.92;;;4.30;99.90;;;;;;7374200;19;20671;-59
2023/12/12 00:48:20;;;;;;;10.07;3.97;;;4.30;99.90;;;;;;7377829;19;20039;-64
2023/12/12 00:50:46;;;;;;;9.60;3.90;;;4.20;99.90;;;;;;7375174;19;20894;-65
2023/12/12 00:53:13;;;;;;;13.80;4.00;;;4.10;99.90;;;;;;7377902;19;20022;-64
2023/12/12 00:55:39;;;;;;;12.10;3.85;;;4.10;99.90;;;;;;7374789;19;20123;-65
2023/12/12 00:58:06;;;;;;;10.63;3.85;;;4.10;99.90;;;;;;7379495;19;20061;-59
2023/12/12 01:00:32;;;;;;;9.40;3.67;;;4.10;99.90;;;;;;7376996;19;20022;-65
2023/12/12 01:02:59;;;;;;;11.48;3.65;;;4.10;99.90;;;;;;7376992;19;20018;-64
2023/12/12 01:05:26;;;;;;;12.75;3.92;;;4.10;99.90;;;;;;7371469;19;20022;-65
2023/12/12 01:08:12;;;;;;;8.85;3.58;;;4.10;99.90;;;;;;7374231;19;20018;-60
2023/12/12 01:10:38;;;;;;;14.68;4.13;;;4.10;99.90;;;;;;7376776;19;20010;-64
2023/12/12 01:13:05;;;;;;;11.20;4.10;;;4.10;99.90;;;;;;7375203;19;20022;-64
2023/12/12 01:15:32;;;;;;;10.45;3.78;;;4.10;99.90;;;;;;7376659;19;20022;-65
2023/12/12 01:18:03;;;;;;;14.07;4.20;;;4.20;99.90;;;;;;7377211;19;20014;-65
2023/12/12 01:20:29;;;;;;;14.43;4.20;;;4.10;99.90;;;;;;7375681;19;20019;-64
2023/12/12 01:22:57;;;;;;;11.80;3.85;;;4.20;99.90;;;;;;7371576;19;20026;-65
2023/12/12 01:25:23;;;;;;;6.00;3.63;;;4.10;99.90;;;;;;7376299;19;20034;-65
2023/12/12 01:27:49;;;;;;;11.63;3.47;;;4.20;99.90;;;;;;7376213;19;20034;-64
2023/12/12 01:30:17;;;;;;;10.88;3.47;;;4.20;99.90;;;;;;7373492;19;20376;-64
2023/12/12 01:32:43;;;;;;;8.52;3.40;;;4.10;99.90;;;;;;7376225;19;20014;-65
2023/12/12 01:35:09;;;;;;;11.10;3.47;;;4.10;99.90;;;;;;7374055;19;20019;-64
2023/12/12 01:37:36;;;;;;;9.82;3.25;;;4.10;99.90;;;;;;7371901;19;20022;-64
2023/12/12 01:40:02;;;;;;;7.43;3.30;;;4.10;99.90;;;;;;7372441;19;20022;-60
2023/12/12 01:42:28;;;;;;;9.02;3.20;;;4.10;99.90;;;;;;7376345;19;20465;-60
2023/12/12 01:44:54;;;;;;;12.93;3.33;;;4.00;99.90;;;;;;7373415;19;20057;-59
2023/12/12 01:47:21;;;;;;;11.82;3.47;;;3.90;99.90;;;;;;7375072;19;20082;-59
2023/12/12 01:49:48;;;;;;;8.88;2.97;;;3.90;99.90;;;;;;7375242;19;20030;-61
2023/12/12 01:52:14;;;;;;;10.13;3.20;;;3.80;99.90;;;;;;7373280;19;20026;-65
2023/12/12 01:54:46;;;;;;;10.15;3.40;;;3.80;99.90;;;;;;7375221;19;20073;-64
2023/12/12 01:57:15;;;;;;;11.13;4.22;;;3.80;99.90;;;;;;7373712;19;20023;-64
2023/12/12 01:59:44;;;;;;;8.07;3.08;;;3.80;99.90;;;;;;7376594;19;20931;-59
2023/12/12 02:02:16;;;;;;;;;;;3.70;99.90;;;;;;7374503;19;20021;-64
2023/12/12 02:04:44;;;;;;;8.85;3.33;;;3.60;99.90;;;;;;7371433;19;21766;-59
2023/12/12 02:07:12;;;;;;;10.13;4.07;;;3.50;99.90;;;;;;7376290;19;20131;-60
2023/12/12 02:09:39;;;;;;;8.70;3.70;;;3.50;99.90;;;;;;7371314;19;20060;-64
2023/12/12 02:12:05;;;;;;;9.68;3.42;;;3.50;99.90;;;;;;7372685;19;20014;-64
2023/12/12 02:14:33;;;;;;;11.27;3.95;;;3.40;99.90;;;;;;7373087;19;20011;-65
2023/12/12 02:16:59;;;;;;;13.55;4.40;;;3.40;99.90;;;;;;7375592;19;20824;-60
2023/12/12 02:19:25;;;;;;;13.95;5.18;;;3.40;99.90;;;;;;7373762;19;20725;-60
2023/12/12 02:21:51;;;;;;;12.52;5.22;;;3.50;99.90;;;;;;7376641;19;20094;-65
2023/12/12 02:24:19;;;;;;;10.57;5.32;;;3.60;99.90;;;;;;7370780;19;20023;-60
2023/12/12 02:26:45;;;;;;;11.10;5.43;;;3.50;99.90;;;;;;7376154;19;20014;-66
2023/12/12 02:29:12;;;;;;;13.07;5.65;;;3.50;99.90;;;;;;7367581;19;20078;-65
2023/12/12 02:31:39;;;;;;;8.05;5.40;;;3.50;99.90;;;;;;7374392;19;20102;-59
2023/12/12 02:34:06;;;;;;;12.93;6.13;;;3.50;99.90;;;;;;7374312;19;20018;-60
2023/12/12 02:36:32;;;;;;;13.82;5.50;;;3.40;99.90;;;;;;7371275;19;20023;-60
2023/12/12 02:38:58;;;;;;;14.00;6.03;;;3.30;99.90;;;;;;7373398;19;20078;-60
2023/12/12 02:41:24;;;;;;;10.90;5.57;;;3.30;99.90;;;;;;7372737;19;20022;-59
2023/12/12 02:43:51;;;;;;;15.30;6.80;;;3.20;99.90;;;;;;7376993;19;20036;-62
2023/12/12 02:46:39;;;;;;;15.43;6.63;;;3.30;99.90;;;;;;7372027;19;20026;-60
2023/12/12 02:49:06;;;;;;;12.40;6.70;;;3.20;99.90;;;;;;7375011;19;20015;-60
2023/12/12 02:51:32;;;;;;;10.63;6.72;;;3.10;99.90;;;;;;7367031;19;20023;-65
2023/12/12 02:53:59;;;;;;;12.75;6.70;;;3.10;99.90;;;;;;7374288;19;21410;-64
2023/12/12 02:56:25;;;;;;;14.10;6.03;;;3.10;99.90;;;;;;7371662;19;20010;-65
2023/12/12 02:58:51;;;;;;;14.85;7.47;;;3.00;99.90;;;;;;7372964;19;20019;-65
2023/12/12 03:01:17;;;;;;;18.95;8.30;;;3.00;99.90;;;;;;7371254;19;20078;-65
2023/12/12 03:03:43;;;;;;;21.73;8.57;;;3.00;99.90;;;;;;7373965;19;20018;-64
2023/12/12 03:06:10;;;;;;;18.30;8.63;;;2.90;99.90;;;;;;7374596;19;20036;-59
2023/12/12 03:08:36;;;;;;;12.20;7.88;;;2.90;99.90;;;;;;7371605;19;20031;-60
2023/12/12 03:11:02;;;;;;;14.43;8.73;;;2.90;99.90;;;;;;7372650;19;20018;-60
2023/12/12 03:13:29;;;;;;;21.63;9.60;;;2.90;99.90;;;;;;7370488;19;20042;-64
2023/12/12 03:15:55;;;;;;;18.98;9.95;;;2.90;99.90;;;;;;7372276;19;20449;-64
2023/12/12 03:18:21;;;;;;;21.38;10.32;;;3.00;99.90;;;;;;7366764;19;20030;-60
2023/12/12 03:20:47;;;;;;;20.73;10.98;;;3.00;99.90;;;;;;7371670;19;20018;-65
2023/12/12 03:23:13;;;;;;;24.00;12.15;;;3.00;99.90;;;;;;7372338;19;20026;-59
2023/12/12 03:25:40;;;;;;;26.10;12.32;;;3.00;99.90;;;;;;7372222;19;20062;-60
2023/12/12 03:28:06;;;;;;;29.00;12.13;;;3.00;99.90;;;;;;7372015;19;20764;-60
2023/12/12 03:30:32;;;;;;;29.38;12.93;;;3.00;99.90;;;;;;7373386;19;20075;-60
2023/12/12 03:32:59;;;;;;;26.30;12.85;;;2.90;99.90;;;;;;7368607;19;20095;-65
2023/12/12 03:35:25;;;;;;;26.75;13.82;;;2.90;99.90;;;;;;7371945;19;20022;-66
2023/12/12 03:37:51;;;;;;;31.83;14.82;;;3.00;99.90;;;;;;7371873;19;20036;-59
2023/12/12 03:40:18;;;;;;;30.88;15.20;;;3.00;99.90;;;;;;7370240;19;20022;-59
2023/12/12 03:42:44;;;;;;;36.55;15.90;;;3.00;99.90;;;;;;7368995;19;20019;-59
2023/12/12 03:45:10;;;;;;;38.45;17.02;;;3.00;99.90;;;;;;7371233;19;20047;-59
2023/12/12 03:47:37;;;;;;;41.92;16.65;;;3.00;99.90;;;;;;7369240;19;21463;-64
2023/12/12 03:50:04;;;;;;;39.20;17.27;;;3.10;99.90;;;;;;7370627;19;20018;-64
2023/12/12 03:52:30;;;;;;;35.35;17.42;;;3.10;99.90;;;;;;7372096;19;20015;-64
2023/12/12 03:54:56;;;;;;;40.30;17.17;;;3.10;99.90;;;;;;7372628;19;21008;-64
2023/12/12 03:57:23;;;;;;;43.72;19.83;;;3.10;99.90;;;;;;7373679;19;20018;-64
2023/12/12 03:59:49;;;;;;;41.15;20.17;;;3.10;99.90;;;;;;7375263;19;20037;-59
2023/12/12 04:02:15;;;;;;;49.95;20.02;;;3.10;99.90;;;;;;7370705;19;20123;-60
2023/12/12 04:04:42;;;;;;;49.22;19.73;;;3.20;99.90;;;;;;7368150;19;20021;-60
2023/12/12 04:07:08;;;;;;;40.10;18.98;;;3.20;99.90;;;;;;7371778;19;20006;-60
2023/12/12 04:09:35;;;;;;;52.35;21.63;;;3.10;99.90;;;;;;7371862;19;20388;-65
2023/12/12 04:12:01;;;;;;;60.78;21.27;;;3.20;99.90;;;;;;7369898;19;20026;-65
2023/12/12 04:14:27;;;;;;;65.55;23.08;;;3.20;99.90;;;;;;7368332;19;20018;-61
2023/12/12 04:16:53;;;;;;;72.53;23.85;;;3.20;99.90;;;;;;7373526;19;20034;-65
2023/12/12 04:19:20;;;;;;;104.15;25.85;;;3.20;99.90;;;;;;7368539;19;20042;-65
2023/12/12 04:21:46;;;;;;;97.25;26.27;;;3.30;99.90;;;;;;7369826;19;20089;-62
2023/12/12 04:24:12;;;;;;;110.63;26.98;;;3.30;99.90;;;;;;7367301;19;20466;-61
2023/12/12 04:26:38;;;;;;;152.30;31.40;;;3.40;99.90;;;;;;7372392;19;20058;-61
2023/12/12 04:29:05;;;;;;;231.43;38.63;;;3.30;99.90;;;;;;7368528;19;20507;-65
2023/12/12 04:31:31;;;;;;;191.13;32.80;;;3.30;99.90;;;;;;7370694;19;20025;-65
2023/12/12 04:33:58;;;;;;;297.65;43.72;;;3.30;99.90;;;;;;7368296;19;20095;-61
2023/12/12 04:36:24;;;;;;;150.50;29.27;;;3.30;99.90;;;;;;7371608;19;20411;-65
2023/12/12 04:38:50;;;;;;;139.50;28.27;;;3.30;99.90;;;;;;7365850;19;20929;-61
2023/12/12 04:41:17;;;;;;;481.90;55.08;;;3.20;99.90;;;;;;7371654;19;20019;-60
2023/12/12 04:43:44;;;;;;;279.55;41.50;;;3.30;99.90;;;;;;7366035;19;20025;-61
2023/12/12 04:46:19;;;;;;;312.10;42.30;;;3.20;99.90;;;;;;7372067;19;20014;-60
2023/12/12 04:48:45;;;;;;;358.35;45.60;;;3.30;99.90;;;;;;7368968;19;20026;-61
2023/12/12 04:51:12;;;;;;;338.02;42.33;;;3.40;99.90;;;;;;7370959;19;20018;-61
2023/12/12 04:53:38;;;;;;;360.05;45.40;;;3.60;99.90;;;;;;7366043;19;20119;-61
2023/12/12 04:56:25;;;;;;;283.05;41.72;;;3.60;99.90;;;;;;7368752;19;20025;-61
2023/12/12 04:58:51;;;;;;;313.15;43.20;;;3.80;99.90;;;;;;7370879;19;20015;-61
2023/12/12 05:01:18;;;;;;;198.95;32.30;;;3.80;99.90;;;;;;7366439;19;20027;-60
2023/12/12 05:03:45;;;;;;;220.02;33.47;;;3.70;99.90;;;;;;7369949;19;20054;-61
2023/12/12 05:06:11;;;;;;;124.03;26.40;;;3.70;99.90;;;;;;7369488;19;20021;-61
2023/12/12 05:08:39;;;;;;;208.50;30.60;;;3.70;99.90;;;;;;7369471;19;20018;-61
2023/12/12 05:11:05;;;;;;;173.40;31.75;;;3.70;99.90;;;;;;7363381;19;20014;-61
2023/12/12 05:13:31;;;;;;;129.02;27.02;;;3.70;99.90;;;;;;7367701;19;20057;-61
2023/12/12 05:15:58;;;;;;;161.13;28.88;;;3.70;99.90;;;;;;7367936;19;20090;-61
2023/12/12 05:18:24;;;;;;;177.15;28.90;;;3.60;99.90;;;;;;7369370;19;20036;-61
2023/12/12 05:20:50;;;;;;;205.70;28.90;;;3.60;99.90;;;;;;7366018;19;20022;-67
2023/12/12 05:23:16;;;;;;;196.82;29.27;;;3.60;99.90;;;;;;7367374;19;20462;-66
2023/12/12 05:25:43;;;;;;;133.05;25.40;;;3.50;99.90;;;;;;7371862;19;20035;-62
2023/12/12 05:28:09;;;;;;;205.80;32.58;;;3.60;99.90;;;;;;7376310;19;20395;-60
2023/12/12 05:30:36;;;;;;;193.13;31.13;;;3.50;99.90;;;;;;7376433;19;20035;-64
2023/12/12 05:33:02;;;;;;;230.85;33.20;;;3.60;99.90;;;;;;7376172;19;20046;-61
2023/12/12 05:35:29;;;;;;;225.70;34.53;;;3.70;99.90;;;;;;7376952;19;20014;-61
2023/12/12 05:37:55;;;;;;;243.65;32.53;;;3.70;99.90;;;;;;7373015;19;20021;-60
2023/12/12 05:40:21;;;;;;;238.13;35.30;;;3.70;99.90;;;;;;7374272;19;20049;-60
2023/12/12 05:42:48;;;;;;;298.45;45.38;;;3.70;99.90;;;;;;7377857;19;20025;-60
2023/12/12 05:45:14;;;;;;;281.63;41.67;;;3.70;99.90;;;;;;7370951;19;20019;-66
2023/12/12 05:47:40;;;;;;;231.30;37.78;;;3.80;99.90;;;;;;7376485;19;20039;-65
2023/12/12 05:50:09;;;;;;;118.75;26.50;;;3.80;99.90;;;;;;7373621;19;20022;-60
2023/12/12 05:52:36;;;;;;;76.15;23.25;;;3.80;99.90;;;;;;7378512;19;20022;-66
2023/12/12 05:55:05;;;;;;;58.92;20.67;;;3.80;99.90;;;;;;7376621;19;20033;-65
2023/12/12 05:57:32;;;;;;;59.60;23.48;;;3.80;99.90;;;;;;7376724;19;21052;-62
2023/12/12 05:59:59;;;;;;;60.55;22.98;;;3.80;99.90;;;;;;7376461;19;20019;-66
2023/12/12 06:02:26;;;;;;;76.95;24.75;;;3.90;99.90;;;;;;7376247;19;20036;-67
2023/12/12 06:04:52;;;;;;;86.78;27.55;;;3.90;99.90;;;;;;7373333;19;20022;-65
2023/12/12 06:07:18;;;;;;;86.63;25.75;;;3.90;99.90;;;;;;7373334;19;20014;-65
2023/12/12 06:09:45;;;;;;;65.82;23.00;;;4.00;99.90;;;;;;7377038;19;20026;-65
2023/12/12 06:12:15;;;;;;;98.63;28.40;;;4.00;99.90;;;;;;7373232;19;20014;-65
2023/12/12 06:14:41;;;;;;;183.95;34.03;;;4.10;99.90;;;;;;7376508;19;20120;-65
2023/12/12 06:17:08;;;;;;;261.88;40.38;;;4.10;99.90;;;;;;7374158;19;20025;-66
2023/12/12 06:19:54;;;;;;;193.43;35.00;;;4.10;99.90;;;;;;7373972;19;20029;-60
2023/12/12 06:22:40;;;;;;;141.95;30.17;;;4.20;99.90;;;;;;7374458;19;20865;-61
2023/12/12 06:25:27;;;;;;;163.50;32.38;;;4.20;99.90;;;;;;7371858;19;20023;-60
2023/12/12 06:27:53;;;;;;;183.52;29.80;;;4.30;99.90;;;;;;7375456;19;20078;-60
2023/12/12 06:30:19;;;;;;;316.80;40.67;;;4.30;99.90;;;;;;7374139;19;20035;-60
2023/12/12 06:32:46;;;;;;;476.48;54.35;;;4.30;99.90;;;;;;7378599;19;20425;-66
2023/12/12 06:35:13;;;;;;;386.60;47.40;;;4.40;99.90;;;;;;7371513;19;20814;-65
2023/12/12 06:37:40;;;;;;;286.35;38.97;;;4.50;99.90;;;;;;7375914;19;20018;-64
2023/12/12 06:40:30;;;;;;;349.65;46.33;;;4.60;99.90;;;;;;7372726;19;20120;-66
2023/12/12 06:42:56;;;;;;;164.70;31.73;;;4.70;99.90;;;;;;7374662;19;20026;-65
2023/12/12 06:45:22;;;;;;;296.30;42.28;;;4.70;99.90;;;;;;7370658;19;20807;-61
2023/12/12 06:47:48;;;;;;;243.82;40.22;;;4.70;99.90;;;;;;7370228;19;20018;-61
2023/12/12 06:50:14;;;;;;;285.75;42.22;;;4.80;99.90;;;;;;7370411;19;20010;-60
2023/12/12 06:52:41;;;;;;;257.38;39.65;;;4.80;99.90;;;;;;7370225;19;20011;-60
2023/12/12 06:55:08;;;;;;;473.92;52.47;;;4.90;99.90;;;;;;7373405;19;20010;-62
2023/12/12 06:57:34;;;;;;;344.45;45.47;;;4.90;99.90;;;;;;7371452;19;20018;-61
2023/12/12 07:00:00;;;;;;;356.02;48.42;;;5.00;99.90;;;;;;7373845;19;20052;-66
2023/12/12 07:02:26;;;;;;;150.35;31.17;;;5.00;99.90;;;;;;7372212;19;20002;-62
2023/12/12 07:04:52;;;;;;;456.67;57.42;;;5.00;99.90;;;;;;7373433;19;20078;-59
2023/12/12 07:07:19;;;;;;;463.67;55.05;;;5.00;99.90;;;;;;7370882;19;20077;-59
2023/12/12 07:09:46;;;;;;;255.02;40.53;;;5.10;99.90;;;;;;7374231;19;20029;-59
2023/12/12 07:12:12;;;;;;;436.15;54.83;;;5.10;99.90;;;;;;7372314;19;20018;-59
2023/12/12 07:14:40;;;;;;;491.77;61.55;;;5.20;99.90;;;;;;7369465;19;20022;-64
2023/12/12 07:17:12;;;;;;;353.33;48.95;;;5.20;99.90;;;;;;7370839;19;20018;-59
2023/12/12 07:19:39;;;;;;;318.60;48.90;;;5.30;99.90;;;;;;7372362;19;21584;-59
2023/12/12 07:22:06;;;;;;;401.67;54.42;;;5.30;99.90;;;;;;7372801;19;20025;-59
2023/12/12 07:24:32;;;;;;;479.17;62.10;;;5.30;99.90;;;;;;7367079;19;20115;-59
2023/12/12 07:26:58;;;;;;;244.30;42.53;;;5.30;99.90;;;;;;7374013;19;20056;-60
2023/12/12 07:29:25;;;;;;;422.55;54.78;;;5.30;99.90;;;;;;7369898;19;20378;-64
2023/12/12 07:31:51;;;;;;;364.15;48.67;;;5.30;99.90;;;;;;7372158;19;20581;-64
2023/12/12 07:34:17;;;;;;;405.50;55.85;;;5.30;99.90;;;;;;7372597;19;20775;-59
2023/12/12 07:36:45;;;;;;;466.38;61.15;;;5.40;99.90;;;;;;7369927;19;20015;-59
2023/12/12 07:39:15;;;;;;;532.10;66.75;;;5.40;99.90;;;;;;7370813;19;20066;-59
2023/12/12 07:41:43;;;;;;;485.42;63.67;;;5.40;99.90;;;;;;7371051;19;20022;-59
2023/12/12 07:44:09;;;;;;;454.67;60.60;;;5.50;99.90;;;;;;7367258;19;20089;-61
2023/12/12 07:46:38;;;;;;;493.90;64.28;;;5.50;99.90;;;;;;7371937;19;20069;-59
2023/12/12 07:49:07;;;;;;;548.92;70.75;;;5.50;99.90;;;;;;7373157;19;20018;-64
2023/12/12 07:51:33;;;;;;;496.02;67.28;;;5.50;99.90;;;;;;7372870;19;20026;-63
2023/12/12 07:54:03;;;;;;;497.92;69.30;;;5.50;99.90;;;;;;7371553;19;20018;-64
2023/12/12 07:56:29;;;;;;;524.25;69.18;;;5.50;99.90;;;;;;7371670;19;20070;-58
2023/12/12 07:58:56;;;;;;;533.95;72.15;;;5.50;99.90;;;;;;7369973;19;20026;-58
2023/12/12 08:01:22;;;;;;;482.25;68.05;;;5.60;99.90;;;;;;7373539;19;20022;-64
2023/12/12 08:03:48;;;;;;;452.00;68.10;;;5.60;99.90;;;;;;7371957;19;20031;-58
2023/12/12 08:06:14;;;;;;;494.25;68.70;;;5.60;99.90;;;;;;7370635;19;20018;-58
2023/12/12 08:08:41;;;;;;;650.00;84.85;;;5.60;99.90;;;;;;7370405;19;20029;-58
2023/12/12 08:11:14;;;;;;;461.00;68.85;;;5.70;99.90;;;;;;7372726;19;20026;-59
2023/12/12 08:13:40;;;;;;;561.40;78.72;;;5.60;99.90;;;;;;7370577;19;20022;-64
2023/12/12 08:16:07;;;;;;;419.75;68.35;;;5.70;99.90;;;;;;7371460;19;20014;-65
2023/12/12 08:18:33;;;;;;;447.02;71.18;;;5.70;99.90;;;;;;7370151;19;20402;-64
2023/12/12 08:20:59;;;;;;;514.17;79.45;;;5.60;99.90;;;;;;7369376;19;20035;-65
2023/12/12 08:23:27;;;;;;;487.85;77.93;;;5.70;99.90;;;;;;7369748;19;20014;-59
2023/12/12 08:25:53;;;;;;;525.85;80.70;;;5.70;99.90;;;;;;7370179;19;20516;-60
2023/12/12 08:28:19;;;;;;;511.00;82.88;;;5.70;99.90;;;;;;7370265;19;20134;-64
2023/12/12 08:31:06;;;;;;;521.50;80.22;;;5.70;99.90;;;;;;7367333;19;20039;-65
2023/12/12 08:33:35;;;;;;;566.88;91.53;;;5.70;99.90;;;;;;7368224;19;20018;-61
2023/12/12 08:36:03;;;;;;;418.10;71.80;;;5.60;99.90;;;;;;7371221;19;20127;-60
2023/12/12 08:38:33;;;;;;;517.38;82.45;;;5.60;99.90;;;;;;7367501;19;20018;-60
2023/12/12 08:41:00;;;;;;;462.80;80.35;;;5.70;99.90;;;;;;7369976;19;20025;-61
2023/12/12 08:43:26;;;;;;;595.25;90.10;;;5.70;99.90;;;;;;7368599;19;20021;-60
2023/12/12 08:45:54;;;;;;;704.78;101.55;;;5.70;99.90;;;;;;7371330;19;20018;-60
2023/12/12 08:48:21;;;;;;;584.95;90.57;;;5.70;99.90;;;;;;7369655;19;20033;-60
2023/12/12 08:50:50;;;;;;;568.45;93.63;;;5.70;99.90;;;;;;7370665;19;20018;-60
2023/12/12 08:53:17;;;;;;;652.63;105.78;;;5.70;99.90;;;;;;7370002;19;20007;-64
2023/12/12 08:55:43;;;;;;;583.47;93.43;;;5.70;99.90;;;;;;7363388;19;20022;-64
2023/12/12 08:58:11;;;;;;;602.28;96.95;;;5.80;99.90;;;;;;7367549;19;20017;-61
2023/12/12 09:00:38;;;;;;;643.85;103.30;;;5.80;99.90;;;;;;7376297;19;20014;-60
2023/12/12 09:03:04;;;;;;;705.90;110.20;;;5.80;99.90;;;;;;7378905;19;20015;-64
2023/12/12 09:05:31;;;;;;;470.75;86.63;;;5.80;99.90;;;;;;7371176;19;20019;-65
2023/12/12 09:07:57;;;;;;;660.40;107.65;;;5.80;99.90;;;;;;7378343;19;20490;-65
2023/12/12 09:10:23;;;;;;;680.38;106.65;;;5.80;99.90;;;;;;7373141;19;20026;-60
2023/12/12 09:12:49;;;;;;;681.90;106.50;;;5.80;99.90;;;;;;7375908;19;20022;-60
2023/12/12 09:15:17;;;;;;;500.92;91.80;;;5.80;99.90;;;;;;7375597;19;20359;-60
2023/12/12 09:17:43;;;;;;;468.80;88.53;;;5.80;99.90;;;;;;7372235;19;20018;-60
2023/12/12 09:20:09;;;;;;;635.85;105.20;;;5.80;99.90;;;;;;7375833;19;20018;-60
2023/12/12 09:22:35;;;;;;;594.45;100.18;;;5.80;99.90;;;;;;7375528;19;20021;-60
2023/12/12 09:25:02;;;;;;;576.42;99.38;;;5.80;99.90;;;;;;7374719;19;20699;-60
2023/12/12 09:27:28;;;;;;;644.30;103.10;;;5.80;99.90;;;;;;7371168;19;20014;-60
2023/12/12 09:29:54;;;;;;;581.58;101.07;;;5.70;99.90;;;;;;7373844;19;20027;-60
2023/12/12 09:32:20;;;;;;;617.40;104.55;;;5.70;99.90;;;;;;7375706;19;20014;-60
2023/12/12 09:34:47;;;;;;;495.60;89.90;;;5.80;99.90;;;;;;7376314;19;20035;-60
2023/12/12 09:37:13;;;;;;;608.53;104.90;;;5.80;99.90;;;;;;7375239;19;20015;-60
2023/12/12 09:39:39;;;;;;;522.03;97.05;;;5.80;99.90;;;;;;7377182;19;20036;-60
2023/12/12 09:42:11;;;;;;;541.75;98.45;;;5.70;99.90;;;;;;7378750;19;20360;-60
2023/12/12 09:44:41;;;;;;;339.35;79.05;;;5.80;99.90;;;;;;7375653;19;20102;-60
2023/12/12 09:47:08;;;;;;;558.30;105.18;;;5.80;99.90;;;;;;7376025;19;20018;-60
2023/12/12 09:49:35;;;;;;;453.52;92.80;;;5.90;99.90;;;;;;7377708;19;20025;-60
2023/12/12 09:52:02;;;;;;;533.95;96.88;;;5.80;99.90;;;;;;7374203;19;20800;-60
2023/12/12 09:54:29;;;;;;;592.72;104.60;;;5.80;99.90;;;;;;7378149;19;20073;-60
2023/12/12 09:56:55;;;;;;;452.73;90.88;;;5.90;99.90;;;;;;7376422;19;20856;-60
2023/12/12 09:59:22;;;;;;;445.35;90.18;;;5.90;99.90;;;;;;7374981;19;20486;-60
2023/12/12 10:01:51;;;;;;;552.92;98.05;;;5.80;99.90;;;;;;7376743;19;20014;-61
2023/12/12 10:04:18;;;;;;;226.23;70.07;;;6.00;99.90;;;;;;7374203;19;20018;-61
2023/12/12 10:06:52;;;;;;;266.25;72.18;;;5.90;99.90;;;;;;7373626;19;20018;-60
2023/12/12 10:09:21;;;;;;;273.30;72.75;;;6.00;99.90;;;;;;7373836;19;20014;-60
2023/12/12 10:11:48;;;;;;;327.63;77.60;;;6.00;99.90;;;;;;7375615;19;20018;-60
2023/12/12 10:14:15;;;;;;;210.07;67.07;;;6.10;99.90;;;;;;7374344;19;20026;-60
2023/12/12 10:16:42;;;;;;;234.60;69.65;;;6.00;99.90;;;;;;7375026;19;20031;-60
2023/12/12 10:19:12;;;;;;;198.55;65.10;;;6.00;99.90;;;;;;7373435;19;20026;-59
2023/12/12 10:21:39;;;;;;;290.35;73.25;;;6.10;99.90;;;;;;7376834;19;20034;-60
2023/12/12 10:24:05;;;;;;;282.05;71.70;;;6.10;99.90;;;;;;7371766;19;20112;-60
2023/12/12 10:26:32;;;;;;;332.02;78.28;;;6.00;99.90;;;;;;7373489;19;20014;-64
2023/12/12 10:29:00;;;;;;;191.43;61.25;;;6.00;99.90;;;;;;7374184;19;20026;-64
2023/12/12 10:31:27;;;;;;;261.48;68.20;;;6.10;99.90;;;;;;7375320;19;20035;-64
2023/12/12 10:33:56;;;;;;;218.15;63.92;;;6.10;99.90;;;;;;7373106;19;20011;-64
2023/12/12 10:36:24;;;;;;;111.78;52.42;;;6.10;99.90;;;;;;7373891;19;20006;-64
2023/12/12 10:38:53;;;;;;;113.95;52.08;;;6.10;99.90;;;;;;7371224;19;20018;-64
2023/12/12 10:41:20;;;;;;;129.82;55.63;;;6.10;99.90;;;;;;7375979;19;20054;-64
2023/12/12 10:43:48;;;;;;;114.95;53.47;;;6.10;99.90;;;;;;7370380;19;20019;-64
2023/12/12 10:46:15;;;;;;;135.88;56.47;;;6.10;99.90;;;;;;7372921;19;20030;-64
2023/12/12 10:48:47;;;;;;;117.35;53.25;;;6.10;99.90;;;;;;7370616;19;20018;-65
2023/12/12 10:51:16;;;;;;;107.35;48.90;;;6.10;99.90;;;;;;7372335;19;20090;-64
2023/12/12 10:53:44;;;;;;;121.13;50.33;;;6.10;99.90;;;;;;7373441;19;20109;-64
2023/12/12 10:56:11;;;;;;;126.75;54.05;;;6.10;99.90;;;;;;7371695;19;20556;-64
2023/12/12 10:58:59;;;;;;;113.47;51.78;;;6.10;99.90;;;;;;7371800;19;20042;-64
2023/12/12 11:01:25;;;;;;;97.78;48.25;;;6.10;99.90;;;;;;7371157;19;20018;-64
2023/12/12 11:03:53;;;;;;;99.82;48.78;;;6.20;99.90;;;;;;7373020;19;20022;-64
2023/12/12 11:06:21;;;;;;;91.53;47.47;;;6.20;99.90;;;;;;7371084;19;20031;-64
2023/12/12 11:08:48;;;;;;;105.28;50.47;;;6.40;99.90;;;;;;7373533;19;20017;-60
2023/12/12 11:11:17;;;;;;;114.10;52.33;;;6.40;99.90;;;;;;7369917;19;20014;-64
2023/12/12 11:13:44;;;;;;;130.07;50.90;;;6.50;99.90;;;;;;7373083;19;20022;-64
2023/12/12 11:16:14;;;;;;;134.45;54.28;;;6.60;99.90;;;;;;7369894;19;20017;-60
2023/12/12 11:18:45;;;;;;;143.35;57.03;;;6.50;99.90;;;;;;7369854;19;20021;-60
2023/12/12 11:21:43;;;;;;;142.02;52.70;;;6.50;99.90;;;;;;7368648;19;20023;-59
2023/12/12 11:24:09;;;;;;;153.30;55.72;;;6.60;99.90;;;;;;7367492;19;20022;-60
2023/12/12 11:26:38;;;;;;;139.65;54.75;;;6.60;99.90;;;;;;7369783;19;20058;-59
2023/12/12 11:29:10;;;;;;;150.00;54.15;;;6.60;99.90;;;;;;7369808;19;20104;-60
2023/12/12 11:31:37;;;;;;;124.53;52.30;;;6.70;99.90;;;;;;7373401;19;20925;-60
2023/12/12 11:34:07;;;;;;;129.52;52.17;;;6.70;99.90;;;;;;7371600;19;20035;-63
2023/12/12 11:36:53;;;;;;;129.85;53.60;;;6.70;99.90;;;;;;7376694;19;20628;-64
2023/12/12 11:39:41;;;;;;;120.53;50.88;;;6.70;99.90;;;;;;7369728;19;20029;-64
2023/12/12 11:42:22;;;;;;;131.02;48.70;;;6.80;99.90;;;;;;7373467;19;20045;-64
2023/12/12 11:44:52;;;;;;;141.18;55.88;;;6.70;99.90;;;;;;7372058;19;20022;-64
2023/12/12 11:47:26;;;;;;;131.15;54.63;;;6.70;99.90;;;;;;7371784;19;20022;-64
2023/12/12 11:50:15;;;;;;;136.02;50.92;;;6.70;99.90;;;;;;7372411;19;20020;-64
2023/12/12 11:52:47;;;;;;;118.43;41.63;;;6.70;99.90;;;;;;7370902;19;20600;-64
2023/12/12 11:55:32;;;;;;;138.68;50.55;;;6.70;99.90;;;;;;7374440;19;20869;-64
2023/12/12 11:58:00;;;;;;;148.32;49.13;;;6.70;99.90;;;;;;7370454;19;20090;-64
2023/12/12 12:00:29;;;;;;;138.95;50.45;;;6.70;99.90;;;;;;7369810;19;20034;-64
2023/12/12 12:02:56;;;;;;;146.82;48.38;;;6.70;99.90;;;;;;7373094;19;20010;-64
2023/12/12 12:05:22;;;;;;;125.53;49.40;;;6.80;99.90;;;;;;7371134;19;20118;-65
2023/12/12 12:07:48;;;;;;;128.65;49.58;;;6.80;99.90;;;;;;7368312;19;20035;-64
2023/12/12 12:10:15;;;;;;;185.23;56.40;;;6.90;99.90;;;;;;7371829;19;20018;-64
2023/12/12 12:12:51;;;;;;;125.53;48.95;;;6.90;99.90;;;;;;7370925;19;20047;-65
2023/12/12 12:15:17;;;;;;;126.88;49.75;;;6.90;99.90;;;;;;7372636;19;20097;-64
2023/12/12 12:17:43;;;;;;;134.40;49.03;;;7.00;99.90;;;;;;7367863;19;20396;-64
2023/12/12 12:20:09;;;;;;;128.13;43.50;;;7.00;99.90;;;;;;7370923;19;20018;-64
2023/12/12 12:22:56;;;;;;;127.97;47.53;;;7.00;99.90;;;;;;7369639;19;20018;-65
2023/12/12 12:25:26;;;;;;;136.10;46.80;;;7.10;99.90;;;;;;7366448;19;20471;-65
2023/12/12 12:27:54;;;;;;;119.43;47.55;;;7.10;99.90;;;;;;7372362;19;20025;-65
2023/12/12 12:30:22;;;;;;;118.65;44.92;;;7.10;99.90;;;;;;7368140;19;20014;-66
2023/12/12 12:32:58;;;;;;;123.20;44.22;;;7.10;99.90;;;;;;7374414;19;20371;-66
2023/12/12 12:35:24;;;;;;;122.35;44.78;;;7.10;99.90;;;;;;7377671;19;20023;-66
2023/12/12 12:37:52;;;;;;;123.88;47.22;;;7.20;99.90;;;;;;7376996;19;20071;-66